Time;durP1;ratioP1;P1;durP2;ratioP2;P2;SDS_P1;SDS_P2;PMS_P1;PMS_P2;Temp;Humidity;BMP_temperature;BMP_pressure;BME280_temperature;BME280_humidity;BME280_pressure;Samples;Min_cycle;Max_cycle;Signal;HPM_P1;HPM_P2
2022/03/15 00:02:34;;;;;;;37.30;14.75;;;;;;;5.79;65.04;100633.94;8439579;28;20051;-69
2022/03/15 00:06:35;;;;;;;30.80;13.77;;;;;;;5.93;65.93;100632.63;8457661;28;20500;-68
2022/03/15 00:10:37;;;;;;;32.67;14.70;;;;;;;5.94;66.47;100634.25;8470594;27;20407;-68
2022/03/15 00:14:37;;;;;;;35.72;12.57;;;;;;;6.02;67.52;100625.84;8431773;27;20052;-68
2022/03/15 00:18:39;;;;;;;27.38;12.45;;;;;;;6.08;67.95;100630.19;8446097;27;20400;-67
2022/03/15 00:22:39;;;;;;;23.85;12.00;;;;;;;6.10;68.21;100622.75;8440118;28;20055;-68
2022/03/15 00:26:41;;;;;;;24.15;11.77;;;;;;;6.13;69.32;100622.28;8460472;28;20052;-67
2022/03/15 00:30:41;;;;;;;23.88;11.23;;;;;;;6.22;70.15;100631.53;8457821;28;20054;-69
2022/03/15 00:34:43;;;;;;;28.88;11.45;;;;;;;6.19;70.14;100636.56;8454782;27;20040;-68
2022/03/15 00:38:44;;;;;;;22.42;11.40;;;;;;;6.22;70.94;100642.28;8452704;27;20587;-68
2022/03/15 00:42:51;;;;;;;25.33;12.02;;;;;;;6.26;71.05;100638.03;8443903;28;20047;-67
2022/03/15 00:46:52;;;;;;;23.65;11.80;;;;;;;6.39;72.00;100638.78;8458934;28;20046;-69
2022/03/15 00:50:54;;;;;;;25.50;12.50;;;;;;;6.29;71.43;100648.28;8473278;27;20097;-70
2022/03/15 00:54:55;;;;;;;24.55;12.02;;;;;;;6.29;72.80;100659.00;8436951;28;20052;-68
2022/03/15 00:58:56;;;;;;;25.95;11.45;;;;;;;6.29;73.33;100659.00;8433648;27;20044;-69
2022/03/15 01:02:58;;;;;;;24.40;12.77;;;;;;;6.34;73.97;100651.03;8425591;28;20412;-68
2022/03/15 01:06:59;;;;;;;20.40;11.23;;;;;;;6.39;74.83;100644.16;8427905;28;20115;-68
2022/03/15 01:11:00;;;;;;;21.90;11.88;;;;;;;6.32;74.76;100647.81;8429294;28;20048;-70
2022/03/15 01:15:01;;;;;;;22.80;12.63;;;;;;;6.36;75.07;100638.19;8422052;28;20503;-67
2022/03/15 01:19:04;;;;;;;22.45;11.80;;;;;;;6.40;75.71;100632.38;8448677;28;20048;-68
2022/03/15 01:23:06;;;;;;;22.02;12.07;;;;;;;6.40;76.21;100643.09;8447754;28;20051;-67
2022/03/15 01:27:07;;;;;;;27.73;13.48;;;;;;;6.42;75.68;100630.22;8457635;28;20403;-68
2022/03/15 01:31:08;;;;;;;27.58;13.65;;;;;;;6.40;75.11;100629.69;8441692;28;20478;-68
2022/03/15 01:35:09;;;;;;;27.95;13.63;;;;;;;6.31;74.70;100634.63;8476725;27;20104;-68
2022/03/15 01:39:11;;;;;;;31.95;15.30;;;;;;;6.31;74.92;100630.06;8475484;27;20063;-67
2022/03/15 01:43:12;;;;;;;31.95;14.80;;;;;;;6.25;74.83;100636.41;8474509;28;20050;-68
2022/03/15 01:47:13;;;;;;;39.65;16.27;;;;;;;6.23;74.55;100637.72;8425946;28;20048;-67
2022/03/15 01:51:15;;;;;;;34.20;15.77;;;;;;;6.21;74.49;100635.28;8438015;27;20036;-67
2022/03/15 01:55:16;;;;;;;35.22;16.70;;;;;;;6.20;74.48;100633.63;8441494;28;20580;-68
2022/03/15 01:59:17;;;;;;;33.05;15.40;;;;;;;6.16;74.33;100637.06;8435304;28;20048;-67
2022/03/15 02:03:19;;;;;;;35.67;17.40;;;;;;;6.15;74.72;100636.25;8462948;28;20396;-68
2022/03/15 02:07:19;;;;;;;32.28;16.77;;;;;;;6.27;74.69;100634.31;8464248;28;20047;-68
2022/03/15 02:11:20;;;;;;;34.28;15.55;;;;;;;6.24;74.94;100629.41;8471104;27;20047;-67
2022/03/15 02:15:21;;;;;;;32.17;15.13;;;;;;;6.25;75.35;100628.34;8462967;27;20048;-69
2022/03/15 02:19:23;;;;;;;30.85;15.23;;;;;;;6.20;75.02;100617.53;8465580;27;20547;-67
2022/03/15 02:23:23;;;;;;;30.85;15.45;;;;;;;6.18;75.08;100618.84;8447257;28;20071;-67
2022/03/15 02:27:25;;;;;;;28.77;14.90;;;;;;;6.19;75.82;100620.47;8461747;28;20047;-67
2022/03/15 02:31:25;;;;;;;28.80;15.60;;;;;;;6.20;75.81;100617.53;8463451;27;20054;-68
2022/03/15 02:35:27;;;;;;;34.35;15.35;;;;;;;6.19;76.19;100615.09;8462521;28;20059;-69
2022/03/15 02:39:27;;;;;;;27.75;15.07;;;;;;;6.22;76.10;100631.53;8446542;27;20056;-69
2022/03/15 02:43:28;;;;;;;33.47;15.40;;;;;;;6.15;76.06;100620.16;8431546;28;20056;-67
2022/03/15 02:47:30;;;;;;;32.70;15.43;;;;;;;6.21;76.54;100629.09;8455503;28;20502;-69
2022/03/15 02:51:31;;;;;;;33.13;16.13;;;;;;;6.15;76.32;100636.25;8473949;27;20043;-68
2022/03/15 02:55:33;;;;;;;32.50;16.02;;;;;;;6.16;75.90;100632.50;8444346;27;20047;-70
2022/03/15 02:59:34;;;;;;;32.05;15.02;;;;;;;6.16;76.03;100619.09;8430344;27;20052;-68
2022/03/15 03:03:35;;;;;;;31.52;14.68;;;;;;;6.18;75.94;100608.94;8429568;28;20491;-68
2022/03/15 03:07:36;;;;;;;28.33;15.05;;;;;;;6.20;75.17;100622.91;8432974;28;20486;-68
2022/03/15 03:11:37;;;;;;;32.75;14.80;;;;;;;6.19;75.08;100632.00;8450962;27;20048;-67
2022/03/15 03:15:38;;;;;;;26.40;13.85;;;;;;;6.10;75.92;100629.97;8413803;27;20043;-68
2022/03/15 03:19:39;;;;;;;28.48;14.63;;;;;;;6.06;75.58;100632.34;8393116;28;20116;-67
2022/03/15 03:23:40;;;;;;;28.13;15.93;;;;;;;5.98;75.90;100635.38;8454794;28;20147;-68
2022/03/15 03:27:42;;;;;;;39.13;18.70;;;;;;;5.88;76.52;100640.56;8409686;28;20039;-69
2022/03/15 03:31:44;;;;;;;40.72;18.60;;;;;;;5.90;75.68;100638.47;8452073;27;20054;-69
2022/03/15 03:35:45;;;;;;;38.85;18.60;;;;;;;5.96;74.74;100626.78;8435352;27;20525;-69
2022/03/15 03:39:46;;;;;;;43.80;18.88;;;;;;;5.96;74.30;100624.09;8428872;28;20079;-69
2022/03/15 03:43:47;;;;;;;38.63;19.08;;;;;;;5.97;74.15;100633.78;8450633;28;20046;-68
2022/03/15 03:47:48;;;;;;;39.10;16.60;;;;;;;5.94;74.64;100628.88;8475291;27;20040;-67
2022/03/15 03:51:49;;;;;;;35.30;16.15;;;;;;;5.92;74.44;100631.81;8463166;27;20044;-68
2022/03/15 03:55:51;;;;;;;31.52;15.70;;;;;;;5.94;74.07;100634.25;8426136;27;20174;-67
2022/03/15 03:59:51;;;;;;;35.08;17.70;;;;;;;5.94;73.66;100639.63;8457770;27;20180;-69
2022/03/15 04:03:53;;;;;;;37.72;17.88;;;;;;;5.96;73.46;100632.16;8429926;28;20055;-67
2022/03/15 04:07:54;;;;;;;43.85;20.00;;;;;;;5.88;73.90;100645.94;8430994;28;20399;-67
2022/03/15 04:11:56;;;;;;;36.70;18.48;;;;;;;5.90;73.33;100649.19;8463772;27;20503;-68
2022/03/15 04:15:57;;;;;;;36.45;17.55;;;;;;;5.96;72.89;100647.44;8450295;27;20051;-67
2022/03/15 04:19:58;;;;;;;35.88;17.88;;;;;;;5.87;73.22;100644.31;8436017;27;20116;-68
2022/03/15 04:23:58;;;;;;;42.08;17.67;;;;;;;5.81;73.37;100639.91;8447850;28;20126;-67
2022/03/15 04:28:00;;;;;;;36.33;16.00;;;;;;;5.85;73.07;100630.31;8443274;27;20056;-69
2022/03/15 04:32:01;;;;;;;34.30;16.38;;;;;;;5.77;73.74;100628.81;8445801;27;20488;-66
2022/03/15 04:36:03;;;;;;;34.70;16.20;;;;;;;5.86;72.87;100627.41;8466600;27;20442;-69
2022/03/15 04:40:05;;;;;;;37.45;18.08;;;;;;;5.85;73.31;100631.13;8459108;27;20079;-69
2022/03/15 04:44:06;;;;;;;38.63;15.52;;;;;;;5.80;73.66;100627.53;8458376;28;20039;-68
2022/03/15 04:48:07;;;;;;;32.08;12.95;;;;;;;5.92;72.95;100636.38;8428301;28;20044;-68
2022/03/15 04:52:08;;;;;;;25.40;11.73;;;;;;;5.93;72.96;100643.34;8458890;27;20412;-68
2022/03/15 04:56:09;;;;;;;25.25;11.30;;;;;;;6.05;72.41;100641.44;8451806;27;20116;-68
2022/03/15 05:00:11;;;;;;;25.42;12.20;;;;;;;6.10;72.02;100644.19;8478295;27;20050;-69
2022/03/15 05:04:11;;;;;;;24.52;11.50;;;;;;;6.14;71.79;100645.34;8510235;27;20126;-69
2022/03/15 05:08:12;;;;;;;24.63;11.95;;;;;;;6.17;71.77;100644.88;8461724;28;20130;-68
2022/03/15 05:12:13;;;;;;;22.85;11.20;;;;;;;6.16;71.51;100642.41;8460313;28;20043;-67
2022/03/15 05:16:19;;;;;;;29.95;12.40;;;;;;;6.20;71.36;100639.00;8459768;27;20051;-68
2022/03/15 05:20:20;;;;;;;21.35;10.95;;;;;;;6.14;71.76;100648.00;8491398;28;20142;-69
2022/03/15 05:24:21;;;;;;;22.88;11.07;;;;;;;6.18;71.72;100657.22;8460950;27;20048;-69
2022/03/15 05:28:22;;;;;;;25.55;11.15;;;;;;;6.27;71.91;100649.59;8483016;27;20049;-68
2022/03/15 05:32:24;;;;;;;21.42;11.02;;;;;;;6.35;71.66;100651.84;8500469;27;20443;-68
2022/03/15 05:36:25;;;;;;;25.30;11.35;;;;;;;6.32;72.02;100658.53;8500436;27;20039;-68
2022/03/15 05:40:27;;;;;;;28.38;11.95;;;;;;;6.24;71.92;100656.22;8499577;27;20058;-68
2022/03/15 05:44:28;;;;;;;27.75;12.32;;;;;;;6.35;72.14;100658.03;8499900;27;20054;-67
2022/03/15 05:48:29;;;;;;;30.35;13.02;;;;;;;6.43;71.98;100658.69;8500172;27;20047;-69
2022/03/15 05:52:30;;;;;;;30.88;13.70;;;;;;;6.40;72.18;100653.84;8488930;27;20406;-68
2022/03/15 05:56:34;;;;;;;28.13;13.55;;;;;;;6.36;72.56;100648.94;8466929;27;20044;-68
2022/03/15 06:00:34;;;;;;;25.23;12.98;;;;;;;6.39;72.50;100641.47;8456779;27;20051;-69
2022/03/15 06:04:35;;;;;;;31.67;12.65;;;;;;;6.47;72.70;100649.09;8460751;28;20085;-68
2022/03/15 06:08:36;;;;;;;24.30;11.65;;;;;;;6.41;72.90;100650.06;8431083;28;20503;-69
2022/03/15 06:12:38;;;;;;;25.98;12.63;;;;;;;6.35;72.94;100658.03;8433456;28;20415;-70
2022/03/15 06:16:39;;;;;;;27.17;12.07;;;;;;;6.14;73.54;100645.34;8437075;27;20067;-69
2022/03/15 06:20:40;;;;;;;26.40;12.07;;;;;;;6.09;74.07;100653.28;8431201;28;20048;-68
2022/03/15 06:24:41;;;;;;;33.13;13.48;;;;;;;6.06;74.22;100648.44;8447339;28;20467;-69
2022/03/15 06:28:42;;;;;;;35.63;15.93;;;;;;;6.17;74.23;100647.56;8464988;27;20051;-68
2022/03/15 06:32:43;;;;;;;39.80;16.88;;;;;;;6.31;73.60;100640.81;8464451;28;20099;-70
2022/03/15 06:36:44;;;;;;;30.33;15.07;;;;;;;6.28;73.91;100646.66;8453340;27;20525;-68
2022/03/15 06:40:47;;;;;;;27.17;12.60;;;;;;;6.23;73.85;100649.25;8470242;27;20113;-68
2022/03/15 06:44:48;;;;;;;25.83;12.63;;;;;;;6.22;74.45;100650.31;8449334;27;20036;-69
2022/03/15 06:48:49;;;;;;;25.58;12.43;;;;;;;6.31;74.37;100646.16;8446788;28;20059;-68
2022/03/15 06:52:50;;;;;;;25.90;12.68;;;;;;;6.41;74.36;100644.69;8449758;27;20092;-67
2022/03/15 06:56:52;;;;;;;28.80;13.18;;;;;;;6.40;74.44;100643.09;8497856;27;20075;-68
2022/03/15 07:00:55;;;;;;;29.05;13.77;;;;;;;6.36;74.32;100638.19;8478347;27;20047;-68
2022/03/15 07:04:55;;;;;;;24.92;13.25;;;;;;;6.49;74.71;100636.25;8497690;27;20050;-69
2022/03/15 07:08:56;;;;;;;28.50;13.90;;;;;;;6.57;74.21;100643.88;8456126;27;20472;-69
2022/03/15 07:12:57;;;;;;;33.22;14.77;;;;;;;6.76;74.05;100637.22;8433225;28;20098;-68
2022/03/15 07:16:59;;;;;;;31.23;13.75;;;;;;;6.97;73.67;100649.88;8458148;27;20047;-69
2022/03/15 07:20:59;;;;;;;30.52;14.20;;;;;;;7.12;73.22;100636.66;8482082;27;20085;-69
2022/03/15 07:25:04;;;;;;;29.73;14.23;;;;;;;7.35;72.53;100634.78;8474941;27;20054;-69
2022/03/15 07:29:05;;;;;;;28.55;12.75;;;;;;;7.45;72.10;100629.53;8464955;27;20070;-69
2022/03/15 07:33:06;;;;;;;28.77;13.57;;;;;;;7.60;71.77;100637.78;8462655;28;20052;-69
2022/03/15 07:37:07;;;;;;;30.15;13.10;;;;;;;7.74;71.42;100633.63;8462756;28;20094;-69
2022/03/15 07:41:08;;;;;;;30.88;13.55;;;;;;;7.82;70.92;100641.25;8426971;28;20288;-68
2022/03/15 07:45:09;;;;;;;27.92;13.02;;;;;;;7.91;70.57;100650.47;8462229;28;20380;-68
2022/03/15 07:49:11;;;;;;;28.42;13.55;;;;;;;8.05;70.28;100653.56;8443041;28;20047;-68
2022/03/15 07:53:12;;;;;;;25.08;13.27;;;;;;;8.11;69.91;100654.44;8461858;28;20051;-68
2022/03/15 07:57:14;;;;;;;30.23;13.07;;;;;;;8.16;69.67;100662.53;8461817;28;20100;-68
2022/03/15 08:01:15;;;;;;;34.03;13.82;;;;;;;8.27;69.73;100659.69;8462089;28;20048;-68
2022/03/15 08:05:16;;;;;;;34.70;12.90;;;;;;;8.38;69.41;100647.19;8461561;28;20507;-68
2022/03/15 08:09:17;;;;;;;24.70;12.50;;;;;;;8.49;68.94;100640.81;8461518;28;20050;-69
2022/03/15 08:13:18;;;;;;;29.02;13.52;;;;;;;8.60;69.12;100642.50;8461357;28;20570;-68
2022/03/15 08:17:19;;;;;;;31.17;12.40;;;;;;;8.75;68.40;100634.53;8437733;28;20108;-68
2022/03/15 08:21:22;;;;;;;30.05;10.63;;;;;;;8.85;68.10;100637.28;8459534;28;20039;-68
2022/03/15 08:25:23;;;;;;;27.25;12.55;;;;;;;8.90;68.20;100636.50;8453176;27;20072;-69
2022/03/15 08:29:26;;;;;;;29.92;13.63;;;;;;;8.99;67.77;100634.16;8448344;27;20103;-68
2022/03/15 08:33:27;;;;;;;29.70;14.20;;;;;;;9.11;67.24;100642.81;8457373;27;20496;-68
2022/03/15 08:37:28;;;;;;;29.55;14.18;;;;;;;9.12;67.63;100636.38;8464414;27;20414;-70
2022/03/15 08:41:29;;;;;;;27.23;14.50;;;;;;;9.22;67.12;100633.72;8475926;27;20047;-68
2022/03/15 08:45:31;;;;;;;31.95;14.73;;;;;;;9.30;67.40;100630.53;8474170;27;20036;-69
2022/03/15 08:49:32;;;;;;;32.17;13.65;;;;;;;9.47;66.84;100614.13;8450312;27;20043;-69
2022/03/15 08:53:33;;;;;;;33.95;14.73;;;;;;;9.74;66.15;100620.97;8480152;27;20134;-69
2022/03/15 08:57:34;;;;;;;33.67;15.77;;;;;;;9.82;65.88;100616.94;8390309;28;20491;-69
2022/03/15 09:01:35;;;;;;;40.50;15.70;;;;;;;9.98;65.22;100609.69;8425803;28;20055;-69
2022/03/15 09:05:37;;;;;;;33.20;15.93;;;;;;;9.94;65.10;100608.59;8426200;28;20491;-68
2022/03/15 09:09:38;;;;;;;34.45;15.13;;;;;;;10.10;65.12;100607.50;8488394;27;20051;-68
2022/03/15 09:13:38;;;;;;;33.92;14.73;;;;;;;10.29;64.02;100605.94;8493499;27;20070;-70
2022/03/15 09:17:40;;;;;;;38.70;14.57;;;;;;;10.44;63.46;100611.34;8461496;27;20054;-70
2022/03/15 09:21:40;;;;;;;31.88;14.20;;;;;;;10.58;63.80;100598.06;8445969;28;20567;-71
2022/03/15 09:25:42;;;;;;;27.42;13.25;;;;;;;10.88;62.88;100603.44;8459182;28;20052;-69
2022/03/15 09:29:42;;;;;;;30.75;13.10;;;;;;;10.97;62.83;100590.16;8423430;28;20503;-68
2022/03/15 09:33:44;;;;;;;31.45;13.50;;;;;;;11.12;61.67;100597.41;8458571;28;20048;-72
2022/03/15 09:37:47;;;;;;;30.40;14.18;;;;;;;11.17;61.06;100590.09;8458949;28;20052;-69
2022/03/15 09:41:50;;;;;;;35.92;15.35;;;;;;;11.30;61.19;100584.09;8458403;28;20063;-69
2022/03/15 09:45:52;;;;;;;34.33;15.52;;;;;;;11.37;61.40;100590.00;8459493;28;20036;-69
2022/03/15 09:49:54;;;;;;;36.50;18.23;;;;;;;11.56;60.40;100587.50;8458855;28;20052;-68
2022/03/15 09:53:56;;;;;;;37.38;17.65;;;;;;;11.56;59.56;100581.25;8459180;28;20066;-68
2022/03/15 09:57:57;;;;;;;34.78;16.17;;;;;;;11.50;59.24;100579.66;8458918;28;20548;-69
2022/03/15 10:01:59;;;;;;;37.90;17.55;;;;;;;11.54;59.41;100575.31;8459087;28;20060;-68
2022/03/15 10:06:00;;;;;;;38.53;17.77;;;;;;;11.62;59.31;100572.03;8492203;27;20040;-68
2022/03/15 10:10:01;;;;;;;36.35;17.23;;;;;;;11.88;59.61;100561.88;8459075;28;20559;-69
2022/03/15 10:14:04;;;;;;;39.60;18.00;;;;;;;12.12;57.24;100557.34;8465406;28;20131;-68
2022/03/15 10:18:05;;;;;;;36.15;17.33;;;;;;;12.14;56.86;100566.81;8468929;27;20077;-68
2022/03/15 10:22:10;;;;;;;35.42;17.08;;;;;;;12.22;56.70;100552.66;8460906;28;20061;-72
2022/03/15 10:26:22;;;;;;;34.85;18.30;;;;;;;12.34;56.37;100549.56;8459207;28;20047;-70
2022/03/15 10:30:24;;;;;;;32.65;16.08;;;;;;;12.42;56.16;100535.41;8473006;27;20446;-68
2022/03/15 10:34:28;;;;;;;39.25;16.77;;;;;;;12.31;54.88;100543.94;8464281;28;20050;-69
2022/03/15 10:38:29;;;;;;;39.72;18.50;;;;;;;12.35;56.00;100544.97;8467089;27;20048;-70
2022/03/15 10:42:29;;;;;;;35.53;16.27;;;;;;;12.61;55.20;100532.78;8443659;28;20050;-69
2022/03/15 10:46:30;;;;;;;27.17;14.98;;;;;;;12.83;53.35;100524.94;8440076;27;20175;-68
2022/03/15 10:50:33;;;;;;;31.58;15.73;;;;;;;13.08;52.55;100516.50;8461879;27;20035;-69
2022/03/15 10:54:35;;;;;;;29.17;15.63;;;;;;;13.27;51.61;100518.47;8464151;28;20062;-70
2022/03/15 10:59:14;;;;;;;30.58;14.48;;;;;;;13.38;49.19;100519.91;8481371;27;20609;-68
2022/03/15 11:03:23;;;;;;;29.60;15.33;;;;;;;13.44;49.91;100518.75;8393247;28;20087;-71
2022/03/15 11:07:24;;;;;;;29.65;14.98;;;;;;;13.67;49.04;100507.00;8372350;28;20299;-70
2022/03/15 11:11:26;;;;;;;28.70;14.95;;;;;;;13.80;49.55;100506.25;8323852;28;20572;-68
2022/03/15 11:15:28;;;;;;;28.65;13.90;;;;;;;13.59;49.19;100504.94;8357637;28;20124;-69
2022/03/15 11:19:34;;;;;;;26.42;14.15;;;;;;;13.28;49.88;100492.94;8363293;28;20059;-69
2022/03/15 11:23:39;;;;;;;38.05;15.02;;;;;;;13.19;50.71;100483.84;8362893;28;20060;-69
2022/03/15 11:27:43;;;;;;;25.40;13.50;;;;;;;13.23;49.77;100480.25;8362100;28;20063;-69
2022/03/15 11:31:44;;;;;;;26.35;12.90;;;;;;;13.23;49.75;100480.25;8358677;28;20053;-69
2022/03/15 11:35:46;;;;;;;21.77;10.10;;;;;;;13.57;48.59;100474.59;8372006;28;20411;-69
2022/03/15 11:39:47;;;;;;;20.65;11.00;;;;;;;13.78;46.85;100465.03;8428642;27;20449;-70
2022/03/15 11:44:27;;;;;;;28.38;13.07;;;;;;;13.73;47.40;100467.81;8461420;28;20090;-68
2022/03/15 11:48:31;;;;;;;;;;;;;;;14.07;48.33;100472.13;8359393;28;20048;-68
2022/03/15 11:53:13;;;;;;;17.58;8.10;;;;;;;14.27;44.16;100455.50;8357521;28;19967;-68
2022/03/15 11:57:31;;;;;;;24.52;10.25;;;;;;;14.45;45.14;100451.88;8357347;28;20052;-69
2022/03/15 12:01:45;;;;;;;24.33;11.97;;;;;;;14.84;44.42;100442.41;8357110;28;20056;-69
2022/03/15 12:05:52;;;;;;;26.63;12.55;;;;;;;14.97;43.73;100436.94;8357412;28;20060;-70
2022/03/15 12:09:57;;;;;;;24.98;12.18;;;;;;;15.02;43.17;100422.41;8356459;28;20075;-69
2022/03/15 12:14:09;;;;;;;22.35;11.98;;;;;;;15.15;44.16;100416.16;8340400;28;20045;-68
2022/03/15 12:22:34;;;;;;;27.45;12.18;;;;;;;15.50;43.92;100418.03;8373446;28;20426;-68
2022/03/15 12:26:35;;;;;;;27.77;11.95;;;;;;;15.55;43.22;100398.88;8468466;27;20048;-69
2022/03/15 12:30:36;;;;;;;22.20;11.50;;;;;;;15.57;43.20;100396.66;8468108;27;20124;-69
2022/03/15 12:34:37;;;;;;;23.27;11.15;;;;;;;15.44;41.50;100397.47;8474999;27;20051;-68
2022/03/15 12:38:42;;;;;;;27.50;12.20;;;;;;;15.46;42.65;100395.25;8497587;27;20069;-69
2022/03/15 12:42:53;;;;;;;22.40;11.63;;;;;;;15.42;42.03;100382.59;8454135;28;20044;-68
2022/03/15 12:46:55;;;;;;;21.33;10.68;;;;;;;15.28;41.13;100393.50;8431879;27;20048;-67
2022/03/15 12:51:01;;;;;;;20.38;10.32;;;;;;;15.03;41.36;100375.06;8462830;27;20040;-69
2022/03/15 12:55:02;;;;;;;18.20;9.75;;;;;;;15.15;40.65;100372.63;8426867;28;20068;-68
2022/03/15 12:59:03;;;;;;;18.92;10.65;;;;;;;15.04;41.54;100360.34;8424397;28;20507;-68
2022/03/15 13:03:07;;;;;;;18.30;10.02;;;;;;;15.16;41.87;100355.19;8426671;28;20113;-67
2022/03/15 13:07:11;;;;;;;19.75;9.80;;;;;;;15.30;41.84;100358.63;8428646;28;20036;-70
2022/03/15 13:11:13;;;;;;;19.90;9.32;;;;;;;15.28;41.56;100349.97;8435246;28;20048;-68
2022/03/15 13:15:19;;;;;;;21.77;9.65;;;;;;;15.16;40.80;100349.75;8434414;28;20069;-69
2022/03/15 13:19:26;;;;;;;16.42;8.52;;;;;;;15.22;40.66;100334.91;8453172;28;20047;-68
2022/03/15 13:23:34;;;;;;;23.95;10.23;;;;;;;15.32;40.59;100333.84;8465490;28;20055;-69
2022/03/15 13:27:39;;;;;;;19.95;9.40;;;;;;;15.34;40.67;100326.97;8446906;27;20056;-67
2022/03/15 13:31:41;;;;;;;25.85;9.50;;;;;;;15.59;40.57;100315.47;8427893;28;20507;-68
2022/03/15 13:35:42;;;;;;;19.98;10.48;;;;;;;15.82;40.16;100310.75;8451346;28;20063;-70
2022/03/15 13:39:43;;;;;;;18.77;10.43;;;;;;;16.13;38.83;100304.44;8424735;28;20071;-68
2022/03/15 13:43:46;;;;;;;21.15;10.00;;;;;;;16.46;39.05;100298.28;8470067;28;20557;-68
2022/03/15 13:47:53;;;;;;;23.88;10.45;;;;;;;16.52;38.08;100284.47;8497152;27;20110;-68
2022/03/15 13:52:15;;;;;;;19.08;8.82;;;;;;;16.65;38.35;100283.56;8484712;27;20115;-69
2022/03/15 13:56:19;;;;;;;22.25;9.73;;;;;;;16.82;38.44;100278.09;8476858;27;20047;-69
2022/03/15 14:00:23;;;;;;;16.08;9.57;;;;;;;16.74;38.32;100268.00;8432560;28;20052;-69
2022/03/15 14:04:33;;;;;;;20.25;10.75;;;;;;;16.77;38.22;100264.63;8470108;27;20483;-69
2022/03/15 14:08:48;;;;;;;15.60;9.73;;;;;;;16.53;38.00;100258.81;8467739;27;20054;-68
2022/03/15 14:12:55;;;;;;;17.67;9.32;;;;;;;16.39;38.63;100254.31;8432603;28;20088;-69
2022/03/15 14:17:00;;;;;;;21.45;10.10;;;;;;;16.59;38.36;100246.69;8480546;27;20067;-69
2022/03/15 14:21:01;;;;;;;20.83;9.25;;;;;;;16.63;38.33;100237.53;8431815;28;20059;-70
2022/03/15 14:25:04;;;;;;;19.33;10.15;;;;;;;16.60;38.30;100231.91;8460262;28;20487;-69
2022/03/15 14:29:09;;;;;;;26.55;14.85;;;;;;;16.62;38.25;100224.19;8456704;27;20097;-69
2022/03/15 14:33:12;;;;;;;24.80;11.88;;;;;;;16.50;38.57;100226.75;8460230;27;21188;-69
2022/03/15 14:37:14;;;;;;;20.10;9.88;;;;;;;16.29;38.90;100227.38;8474922;27;20048;-70
2022/03/15 14:41:15;;;;;;;19.02;10.75;;;;;;;16.10;39.27;100224.16;8491101;27;20079;-70
2022/03/15 14:45:17;;;;;;;30.50;15.98;;;;;;;15.77;39.85;100203.88;8480036;27;20078;-68
2022/03/15 14:49:21;;;;;;;28.30;14.02;;;;;;;16.00;39.77;100208.09;8479712;27;20043;-70
2022/03/15 14:53:24;;;;;;;24.95;11.18;;;;;;;15.58;40.37;100191.34;8498318;27;20129;-68
2022/03/15 14:57:25;;;;;;;24.02;11.27;;;;;;;15.74;40.00;100188.16;8497604;27;20103;-68
2022/03/15 15:01:26;;;;;;;24.75;10.98;;;;;;;16.15;39.64;100183.13;8497998;27;20438;-69
2022/03/15 15:05:27;;;;;;;20.75;11.10;;;;;;;16.41;39.06;100189.38;8497774;27;20050;-68
2022/03/15 15:09:29;;;;;;;22.30;10.45;;;;;;;15.86;39.66;100185.66;8497973;27;20380;-67
2022/03/15 15:13:30;;;;;;;33.15;11.65;;;;;;;15.81;39.95;100177.63;8479832;27;20036;-68
2022/03/15 15:17:32;;;;;;;25.63;10.63;;;;;;;15.36;40.44;100177.75;8449187;27;20056;-68
2022/03/15 15:21:34;;;;;;;20.38;10.38;;;;;;;15.13;40.70;100177.00;8454388;27;20594;-68
2022/03/15 15:25:36;;;;;;;20.02;11.43;;;;;;;14.52;41.46;100168.81;8433654;27;20046;-68
2022/03/15 15:29:38;;;;;;;28.20;11.02;;;;;;;14.37;41.87;100159.09;8488953;27;20050;-68
2022/03/15 15:33:42;;;;;;;19.60;9.73;;;;;;;14.45;41.85;100152.91;8495619;27;20537;-67
2022/03/15 15:37:58;;;;;;;16.48;8.95;;;;;;;14.44;42.08;100145.88;8496907;27;20055;-68
2022/03/15 15:41:59;;;;;;;19.95;10.13;;;;;;;14.19;42.50;100143.72;8481290;27;20488;-68
2022/03/15 15:46:00;;;;;;;26.88;11.23;;;;;;;14.33;42.63;100128.19;8463134;27;20093;-68
2022/03/15 15:50:02;;;;;;;31.40;14.15;;;;;;;14.23;42.69;100134.66;8475029;27;20121;-67
2022/03/15 15:54:04;;;;;;;46.25;15.75;;;;;;;14.17;43.00;100130.44;8469028;27;20248;-69
2022/03/15 15:58:05;;;;;;;26.58;11.73;;;;;;;13.84;43.69;100138.00;8458019;28;20048;-70
2022/03/15 16:02:06;;;;;;;46.70;16.33;;;;;;;13.70;43.96;100126.34;8417145;27;20075;-69
2022/03/15 16:06:07;;;;;;;87.10;29.98;;;;;;;13.52;44.53;100119.16;8458456;27;20411;-69
2022/03/15 16:10:10;;;;;;;50.10;19.50;;;;;;;13.28;45.19;100113.13;8460391;27;20135;-69
2022/03/15 16:14:12;;;;;;;25.08;10.85;;;;;;;13.05;46.44;100107.59;8429008;28;20048;-69
2022/03/15 16:18:13;;;;;;;30.90;13.88;;;;;;;12.79;46.28;100111.88;8428862;28;20055;-69
2022/03/15 16:22:15;;;;;;;26.63;11.15;;;;;;;12.59;47.04;100101.38;8456313;28;20086;-67
2022/03/15 16:26:16;;;;;;;18.38;8.88;;;;;;;12.32;47.89;100106.72;8457587;27;20051;-67
2022/03/15 16:30:17;;;;;;;27.08;12.40;;;;;;;12.03;48.49;100104.19;8460927;27;20059;-68
2022/03/15 16:34:18;;;;;;;28.80;11.98;;;;;;;11.80;49.23;100095.03;8423228;28;20138;-68
2022/03/15 16:38:19;;;;;;;31.48;13.98;;;;;;;11.56;50.04;100088.88;8434496;28;20135;-67
2022/03/15 16:42:21;;;;;;;22.73;10.18;;;;;;;11.33;50.65;100085.91;8455212;27;20418;-68
2022/03/15 16:46:22;;;;;;;27.25;11.20;;;;;;;11.15;51.24;100078.56;8466915;27;20065;-68
2022/03/15 16:50:23;;;;;;;59.35;17.80;;;;;;;10.98;51.48;100068.22;8459946;27;20131;-67
2022/03/15 16:54:25;;;;;;;41.85;13.93;;;;;;;10.82;52.16;100068.69;8469019;27;20126;-68
2022/03/15 17:02:45;;;;;;;19.33;8.38;;;;;;;10.59;52.55;100057.56;8457813;27;20515;-69
2022/03/15 17:06:46;;;;;;;21.10;9.13;;;;;;;10.54;52.45;100052.22;8450559;28;20054;-66
2022/03/15 17:10:47;;;;;;;20.70;9.30;;;;;;;10.46;52.60;100044.75;8439252;28;20048;-67
2022/03/15 17:14:49;;;;;;;16.40;9.00;;;;;;;10.50;52.68;100024.16;8441610;28;20051;-66
2022/03/15 17:18:54;;;;;;;20.92;9.07;;;;;;;10.48;52.53;100037.13;8466711;28;20047;-67
2022/03/15 17:22:58;;;;;;;16.00;9.10;;;;;;;10.45;52.57;100026.91;8463172;28;20047;-72
2022/03/15 17:27:00;;;;;;;16.70;8.65;;;;;;;10.45;52.48;100016.13;8455126;28;20048;-68
2022/03/15 17:31:01;;;;;;;19.05;9.63;;;;;;;10.45;52.27;100015.31;8461711;28;20040;-67
2022/03/15 17:35:08;;;;;;;18.63;8.93;;;;;;;10.43;52.45;100017.47;8459513;28;20126;-68
2022/03/15 17:39:09;;;;;;;17.10;8.77;;;;;;;10.40;52.64;100018.88;8453529;27;20040;-69
2022/03/15 17:43:10;;;;;;;19.73;8.93;;;;;;;10.36;52.82;100020.53;8448586;28;20486;-68
2022/03/15 17:47:12;;;;;;;19.23;8.45;;;;;;;10.32;52.96;100016.78;8464824;28;20522;-67
2022/03/15 17:51:15;;;;;;;20.83;10.07;;;;;;;10.27;53.03;100008.72;8419692;28;20360;-67
2022/03/15 17:55:19;;;;;;;26.48;11.05;;;;;;;10.24;53.23;99997.69;8447669;28;20515;-67
2022/03/15 17:59:22;;;;;;;21.50;8.98;;;;;;;10.22;53.35;100006.06;8454254;28;20040;-68
2022/03/15 18:03:27;;;;;;;17.70;9.07;;;;;;;10.19;53.66;100001.25;8429613;28;20048;-70
2022/03/15 18:07:30;;;;;;;16.20;9.18;;;;;;;10.13;53.79;100003.16;8437288;27;20052;-70
2022/03/15 18:11:31;;;;;;;20.33;9.20;;;;;;;10.20;53.64;99989.38;8447582;27;20048;-70
2022/03/15 18:15:38;;;;;;;17.77;8.50;;;;;;;10.17;53.51;99987.22;8429730;28;20044;-69
2022/03/15 18:19:39;;;;;;;15.57;8.63;;;;;;;10.20;53.65;99978.56;8427159;28;20059;-76
2022/03/15 18:23:40;;;;;;;21.55;9.65;;;;;;;10.16;53.65;99980.22;8434656;27;20404;-76
2022/03/15 18:27:42;;;;;;;28.73;15.02;;;;;;;10.14;53.52;99988.59;8435824;28;20055;-67
2022/03/15 18:31:45;;;;;;;28.70;12.68;;;;;;;10.19;53.64;99985.06;8427689;28;20093;-69
2022/03/15 18:35:49;;;;;;;33.05;16.88;;;;;;;10.11;53.79;99981.03;8452705;28;20048;-68
2022/03/15 18:39:50;;;;;;;41.00;19.83;;;;;;;10.08;54.12;99967.31;8448141;27;20106;-68